sensor_id;sensor_type;location;lat;lon;timestamp;temperature;humidity
7447;DHT22;3765;47.962;7.952;2023-04-08T00:02:25;7.50;76.80
7447;DHT22;3765;47.962;7.952;2023-04-08T00:04:54;7.50;76.90
7447;DHT22;3765;47.962;7.952;2023-04-08T00:07:23;7.60;77.00
7447;DHT22;3765;47.962;7.952;2023-04-08T00:09:51;7.60;77.00
7447;DHT22;3765;47.962;7.952;2023-04-08T00:12:19;7.70;76.90
7447;DHT22;3765;47.962;7.952;2023-04-08T00:14:47;7.70;76.90
7447;DHT22;3765;47.962;7.952;2023-04-08T00:17:15;7.70;76.80
7447;DHT22;3765;47.962;7.952;2023-04-08T00:19:43;7.80;76.90
7447;DHT22;3765;47.962;7.952;2023-04-08T00:22:13;7.80;76.90
7447;DHT22;3765;47.962;7.952;2023-04-08T00:24:41;7.70;76.90
7447;DHT22;3765;47.962;7.952;2023-04-08T00:27:09;7.70;76.90
7447;DHT22;3765;47.962;7.952;2023-04-08T00:29:37;7.70;77.00
7447;DHT22;3765;47.962;7.952;2023-04-08T00:32:06;7.70;77.00
7447;DHT22;3765;47.962;7.952;2023-04-08T00:34:34;7.60;77.10
7447;DHT22;3765;47.962;7.952;2023-04-08T00:37:03;7.60;76.90
7447;DHT22;3765;47.962;7.952;2023-04-08T00:39:32;7.60;77.10
7447;DHT22;3765;47.962;7.952;2023-04-08T00:42:01;7.60;77.10
7447;DHT22;3765;47.962;7.952;2023-04-08T00:44:29;7.60;77.00
7447;DHT22;3765;47.962;7.952;2023-04-08T00:46:57;7.50;77.10
7447;DHT22;3765;47.962;7.952;2023-04-08T00:49:25;7.50;77.20
7447;DHT22;3765;47.962;7.952;2023-04-08T00:51:53;7.40;77.30
7447;DHT22;3765;47.962;7.952;2023-04-08T00:54:22;7.40;77.40
7447;DHT22;3765;47.962;7.952;2023-04-08T00:56:51;7.50;77.40
7447;DHT22;3765;47.962;7.952;2023-04-08T00:59:20;7.50;77.40
7447;DHT22;3765;47.962;7.952;2023-04-08T01:01:53;7.50;77.40
7447;DHT22;3765;47.962;7.952;2023-04-08T01:04:28;7.50;77.50
7447;DHT22;3765;47.962;7.952;2023-04-08T01:07:05;7.60;77.50
7447;DHT22;3765;47.962;7.952;2023-04-08T01:09:38;7.60;77.40
7447;DHT22;3765;47.962;7.952;2023-04-08T01:12:09;7.60;77.50
7447;DHT22;3765;47.962;7.952;2023-04-08T01:14:43;7.60;77.50
7447;DHT22;3765;47.962;7.952;2023-04-08T01:17:12;7.60;77.50
7447;DHT22;3765;47.962;7.952;2023-04-08T01:19:41;7.60;77.40
7447;DHT22;3765;47.962;7.952;2023-04-08T01:25:02;7.60;77.60
7447;DHT22;3765;47.962;7.952;2023-04-08T01:27:34;7.60;77.60
7447;DHT22;3765;47.962;7.952;2023-04-08T01:30:04;7.60;77.60
7447;DHT22;3765;47.962;7.952;2023-04-08T01:32:34;7.50;77.60
7447;DHT22;3765;47.962;7.952;2023-04-08T01:35:04;7.30;77.60
7447;DHT22;3765;47.962;7.952;2023-04-08T01:37:33;7.20;77.70
7447;DHT22;3765;47.962;7.952;2023-04-08T01:40:04;7.10;77.90
7447;DHT22;3765;47.962;7.952;2023-04-08T01:42:34;7.00;78.00
7447;DHT22;3765;47.962;7.952;2023-04-08T01:45:04;6.90;78.10
7447;DHT22;3765;47.962;7.952;2023-04-08T01:47:33;6.90;78.50
7447;DHT22;3765;47.962;7.952;2023-04-08T01:50:03;6.80;78.30
7447;DHT22;3765;47.962;7.952;2023-04-08T01:52:34;6.80;78.70
7447;DHT22;3765;47.962;7.952;2023-04-08T01:55:03;6.80;78.80
7447;DHT22;3765;47.962;7.952;2023-04-08T01:57:34;6.90;79.00
7447;DHT22;3765;47.962;7.952;2023-04-08T02:00:06;6.80;78.90
7447;DHT22;3765;47.962;7.952;2023-04-08T02:02:35;6.80;79.00
7447;DHT22;3765;47.962;7.952;2023-04-08T02:05:05;7.00;79.20
7447;DHT22;3765;47.962;7.952;2023-04-08T02:07:34;7.10;79.10
7447;DHT22;3765;47.962;7.952;2023-04-08T02:10:02;7.10;79.10
7447;DHT22;3765;47.962;7.952;2023-04-08T02:12:33;7.20;79.00
7447;DHT22;3765;47.962;7.952;2023-04-08T02:15:02;7.30;79.00
7447;DHT22;3765;47.962;7.952;2023-04-08T02:17:34;7.30;79.00
7447;DHT22;3765;47.962;7.952;2023-04-08T02:20:06;7.30;78.90
7447;DHT22;3765;47.962;7.952;2023-04-08T02:22:39;7.40;78.60
7447;DHT22;3765;47.962;7.952;2023-04-08T02:25:14;7.30;78.50
7447;DHT22;3765;47.962;7.952;2023-04-08T02:27:45;7.10;78.70
7447;DHT22;3765;47.962;7.952;2023-04-08T02:30:14;7.10;78.90
7447;DHT22;3765;47.962;7.952;2023-04-08T02:32:43;7.20;79.00
7447;DHT22;3765;47.962;7.952;2023-04-08T02:35:13;7.20;79.10
7447;DHT22;3765;47.962;7.952;2023-04-08T02:37:44;7.30;79.10
7447;DHT22;3765;47.962;7.952;2023-04-08T02:40:24;7.30;78.90
7447;DHT22;3765;47.962;7.952;2023-04-08T02:42:54;7.40;78.80
7447;DHT22;3765;47.962;7.952;2023-04-08T02:45:23;7.40;78.80
7447;DHT22;3765;47.962;7.952;2023-04-08T02:47:54;7.50;78.80
7447;DHT22;3765;47.962;7.952;2023-04-08T02:50:23;7.50;78.80
7447;DHT22;3765;47.962;7.952;2023-04-08T02:52:51;7.50;78.60
7447;DHT22;3765;47.962;7.952;2023-04-08T02:55:19;7.40;78.60
7447;DHT22;3765;47.962;7.952;2023-04-08T02:57:47;7.40;78.70
7447;DHT22;3765;47.962;7.952;2023-04-08T03:00:17;7.40;78.70
7447;DHT22;3765;47.962;7.952;2023-04-08T03:02:46;7.50;78.80
7447;DHT22;3765;47.962;7.952;2023-04-08T03:05:14;7.50;78.70
7447;DHT22;3765;47.962;7.952;2023-04-08T03:07:42;7.50;78.80
7447;DHT22;3765;47.962;7.952;2023-04-08T03:10:11;7.40;78.70
7447;DHT22;3765;47.962;7.952;2023-04-08T03:12:39;7.40;78.70
7447;DHT22;3765;47.962;7.952;2023-04-08T03:15:07;7.40;78.80
7447;DHT22;3765;47.962;7.952;2023-04-08T03:17:37;7.40;78.80
7447;DHT22;3765;47.962;7.952;2023-04-08T03:20:06;7.40;78.80
7447;DHT22;3765;47.962;7.952;2023-04-08T03:22:35;7.50;78.90
7447;DHT22;3765;47.962;7.952;2023-04-08T03:25:04;7.50;78.80
7447;DHT22;3765;47.962;7.952;2023-04-08T03:27:32;7.50;78.80
7447;DHT22;3765;47.962;7.952;2023-04-08T03:30:01;7.50;78.80
7447;DHT22;3765;47.962;7.952;2023-04-08T03:32:29;7.60;78.80
7447;DHT22;3765;47.962;7.952;2023-04-08T03:34:59;7.50;78.70
7447;DHT22;3765;47.962;7.952;2023-04-08T03:37:27;7.60;78.70
7447;DHT22;3765;47.962;7.952;2023-04-08T03:39:55;7.40;78.60
7447;DHT22;3765;47.962;7.952;2023-04-08T03:42:23;7.40;78.70
7447;DHT22;3765;47.962;7.952;2023-04-08T03:44:51;7.30;78.80
7447;DHT22;3765;47.962;7.952;2023-04-08T03:47:20;7.30;79.00
7447;DHT22;3765;47.962;7.952;2023-04-08T03:49:48;7.30;79.00
7447;DHT22;3765;47.962;7.952;2023-04-08T03:52:17;7.30;79.00
7447;DHT22;3765;47.962;7.952;2023-04-08T03:54:45;7.30;79.00
7447;DHT22;3765;47.962;7.952;2023-04-08T03:57:14;7.30;79.10
7447;DHT22;3765;47.962;7.952;2023-04-08T03:59:42;7.30;79.10
7447;DHT22;3765;47.962;7.952;2023-04-08T04:02:10;7.30;79.20
7447;DHT22;3765;47.962;7.952;2023-04-08T04:04:38;7.30;79.20
7447;DHT22;3765;47.962;7.952;2023-04-08T04:07:07;7.30;79.20
7447;DHT22;3765;47.962;7.952;2023-04-08T04:09:36;7.30;79.20
7447;DHT22;3765;47.962;7.952;2023-04-08T04:12:04;7.30;79.30
7447;DHT22;3765;47.962;7.952;2023-04-08T04:14:32;7.30;79.20
7447;DHT22;3765;47.962;7.952;2023-04-08T04:17:00;7.30;79.20
7447;DHT22;3765;47.962;7.952;2023-04-08T04:19:29;7.30;79.20
7447;DHT22;3765;47.962;7.952;2023-04-08T04:21:58;7.30;79.20
7447;DHT22;3765;47.962;7.952;2023-04-08T04:24:26;7.30;79.30
7447;DHT22;3765;47.962;7.952;2023-04-08T04:26:55;7.30;79.30
7447;DHT22;3765;47.962;7.952;2023-04-08T04:29:23;7.30;79.30
7447;DHT22;3765;47.962;7.952;2023-04-08T04:31:51;7.30;79.30
7447;DHT22;3765;47.962;7.952;2023-04-08T04:34:20;7.30;79.30
7447;DHT22;3765;47.962;7.952;2023-04-08T04:36:48;7.30;79.30
7447;DHT22;3765;47.962;7.952;2023-04-08T04:39:16;7.30;79.40
7447;DHT22;3765;47.962;7.952;2023-04-08T04:41:44;7.20;79.30
7447;DHT22;3765;47.962;7.952;2023-04-08T04:44:15;7.20;79.40
7447;DHT22;3765;47.962;7.952;2023-04-08T04:46:43;7.20;79.40
7447;DHT22;3765;47.962;7.952;2023-04-08T04:49:12;7.00;79.20
7447;DHT22;3765;47.962;7.952;2023-04-08T04:51:40;6.90;79.60
7447;DHT22;3765;47.962;7.952;2023-04-08T04:54:08;6.90;79.70
7447;DHT22;3765;47.962;7.952;2023-04-08T04:56:36;7.00;79.80
7447;DHT22;3765;47.962;7.952;2023-04-08T04:59:04;7.00;79.80
7447;DHT22;3765;47.962;7.952;2023-04-08T05:01:34;6.90;79.70
7447;DHT22;3765;47.962;7.952;2023-04-08T05:04:02;6.90;79.70
7447;DHT22;3765;47.962;7.952;2023-04-08T05:06:31;6.90;79.90
7447;DHT22;3765;47.962;7.952;2023-04-08T05:08:59;6.90;79.90
7447;DHT22;3765;47.962;7.952;2023-04-08T05:11:27;7.10;79.90
7447;DHT22;3765;47.962;7.952;2023-04-08T05:13:55;7.00;79.90
7447;DHT22;3765;47.962;7.952;2023-04-08T05:16:23;7.10;80.00
7447;DHT22;3765;47.962;7.952;2023-04-08T05:18:53;7.20;79.90
7447;DHT22;3765;47.962;7.952;2023-04-08T05:21:21;7.20;79.80
7447;DHT22;3765;47.962;7.952;2023-04-08T05:23:49;7.10;79.80
7447;DHT22;3765;47.962;7.952;2023-04-08T05:26:18;7.20;79.90
7447;DHT22;3765;47.962;7.952;2023-04-08T05:28:47;7.20;79.90
7447;DHT22;3765;47.962;7.952;2023-04-08T05:31:16;7.30;79.90
7447;DHT22;3765;47.962;7.952;2023-04-08T05:33:44;7.20;79.70
7447;DHT22;3765;47.962;7.952;2023-04-08T05:36:14;7.10;79.80
7447;DHT22;3765;47.962;7.952;2023-04-08T05:38:42;7.20;79.90
7447;DHT22;3765;47.962;7.952;2023-04-08T05:41:10;7.20;80.00
7447;DHT22;3765;47.962;7.952;2023-04-08T05:43:39;7.20;80.00
7447;DHT22;3765;47.962;7.952;2023-04-08T05:46:07;7.30;80.10
7447;DHT22;3765;47.962;7.952;2023-04-08T05:48:36;7.40;80.00
7447;DHT22;3765;47.962;7.952;2023-04-08T05:51:04;7.50;79.90
7447;DHT22;3765;47.962;7.952;2023-04-08T05:53:34;7.40;79.60
7447;DHT22;3765;47.962;7.952;2023-04-08T05:56:03;7.40;79.80
7447;DHT22;3765;47.962;7.952;2023-04-08T05:58:31;7.50;79.70
7447;DHT22;3765;47.962;7.952;2023-04-08T06:00:59;7.60;79.70
7447;DHT22;3765;47.962;7.952;2023-04-08T06:03:27;7.60;79.60
7447;DHT22;3765;47.962;7.952;2023-04-08T06:05:57;7.80;79.60
7447;DHT22;3765;47.962;7.952;2023-04-08T06:08:25;7.80;79.30
7447;DHT22;3765;47.962;7.952;2023-04-08T06:10:55;7.80;79.40
7447;DHT22;3765;47.962;7.952;2023-04-08T06:13:23;7.90;79.30
7447;DHT22;3765;47.962;7.952;2023-04-08T06:15:51;8.00;79.20
7447;DHT22;3765;47.962;7.952;2023-04-08T06:18:19;8.10;79.00
7447;DHT22;3765;47.962;7.952;2023-04-08T06:20:48;8.20;78.90
7447;DHT22;3765;47.962;7.952;2023-04-08T06:23:16;8.30;78.70
7447;DHT22;3765;47.962;7.952;2023-04-08T06:25:44;8.30;78.60
7447;DHT22;3765;47.962;7.952;2023-04-08T06:28:14;8.30;78.50
7447;DHT22;3765;47.962;7.952;2023-04-08T06:30:42;8.40;78.40
7447;DHT22;3765;47.962;7.952;2023-04-08T06:33:11;8.50;78.20
7447;DHT22;3765;47.962;7.952;2023-04-08T06:35:39;8.60;78.00
7447;DHT22;3765;47.962;7.952;2023-04-08T06:38:08;8.70;77.90
7447;DHT22;3765;47.962;7.952;2023-04-08T06:40:37;8.70;77.70
7447;DHT22;3765;47.962;7.952;2023-04-08T06:43:05;8.80;77.80
7447;DHT22;3765;47.962;7.952;2023-04-08T06:45:35;8.80;77.70
7447;DHT22;3765;47.962;7.952;2023-04-08T06:48:03;8.60;77.60
7447;DHT22;3765;47.962;7.952;2023-04-08T06:50:32;8.80;77.80
7447;DHT22;3765;47.962;7.952;2023-04-08T06:53:00;8.80;77.60
7447;DHT22;3765;47.962;7.952;2023-04-08T06:55:28;8.80;77.20
7447;DHT22;3765;47.962;7.952;2023-04-08T06:57:57;8.60;77.50
7447;DHT22;3765;47.962;7.952;2023-04-08T07:00:25;8.90;77.90
7447;DHT22;3765;47.962;7.952;2023-04-08T07:02:54;9.00;77.50
7447;DHT22;3765;47.962;7.952;2023-04-08T07:05:23;9.10;77.00
7447;DHT22;3765;47.962;7.952;2023-04-08T07:07:51;9.10;76.90
7447;DHT22;3765;47.962;7.952;2023-04-08T07:10:19;9.00;77.00
7447;DHT22;3765;47.962;7.952;2023-04-08T07:12:47;9.10;77.10
7447;DHT22;3765;47.962;7.952;2023-04-08T07:15:15;9.20;77.00
7447;DHT22;3765;47.962;7.952;2023-04-08T07:17:44;9.40;77.00
7447;DHT22;3765;47.962;7.952;2023-04-08T07:20:15;9.50;76.40
7447;DHT22;3765;47.962;7.952;2023-04-08T07:22:44;9.50;76.40
7447;DHT22;3765;47.962;7.952;2023-04-08T07:25:12;9.70;76.10
7447;DHT22;3765;47.962;7.952;2023-04-08T07:27:40;9.80;76.00
7447;DHT22;3765;47.962;7.952;2023-04-08T07:30:09;9.80;75.70
7447;DHT22;3765;47.962;7.952;2023-04-08T07:32:37;9.80;75.50
7447;DHT22;3765;47.962;7.952;2023-04-08T07:35:06;9.90;75.50
7447;DHT22;3765;47.962;7.952;2023-04-08T07:37:36;9.80;75.10
7447;DHT22;3765;47.962;7.952;2023-04-08T07:40:05;10.00;75.30
7447;DHT22;3765;47.962;7.952;2023-04-08T07:42:33;10.10;75.00
7447;DHT22;3765;47.962;7.952;2023-04-08T07:45:02;10.30;74.60
7447;DHT22;3765;47.962;7.952;2023-04-08T07:47:30;10.30;74.50
7447;DHT22;3765;47.962;7.952;2023-04-08T07:49:58;10.40;74.00
7447;DHT22;3765;47.962;7.952;2023-04-08T07:52:26;10.30;73.60
7447;DHT22;3765;47.962;7.952;2023-04-08T07:54:58;10.20;73.60
7447;DHT22;3765;47.962;7.952;2023-04-08T07:57:27;10.30;73.50
7447;DHT22;3765;47.962;7.952;2023-04-08T07:59:58;10.80;73.50
7447;DHT22;3765;47.962;7.952;2023-04-08T08:02:27;11.00;72.80
7447;DHT22;3765;47.962;7.952;2023-04-08T08:04:55;11.30;72.30
7447;DHT22;3765;47.962;7.952;2023-04-08T08:07:23;11.40;71.60
7447;DHT22;3765;47.962;7.952;2023-04-08T08:09:51;11.40;71.40
7447;DHT22;3765;47.962;7.952;2023-04-08T08:12:21;11.40;71.40
7447;DHT22;3765;47.962;7.952;2023-04-08T08:14:52;11.60;71.00
7447;DHT22;3765;47.962;7.952;2023-04-08T08:17:24;11.30;70.50
7447;DHT22;3765;47.962;7.952;2023-04-08T08:19:56;11.10;70.30
7447;DHT22;3765;47.962;7.952;2023-04-08T08:22:24;10.80;70.60
7447;DHT22;3765;47.962;7.952;2023-04-08T08:24:55;10.80;70.90
7447;DHT22;3765;47.962;7.952;2023-04-08T08:27:25;11.00;71.10
7447;DHT22;3765;47.962;7.952;2023-04-08T08:29:53;11.00;70.30
7447;DHT22;3765;47.962;7.952;2023-04-08T08:32:21;10.90;70.80
7447;DHT22;3765;47.962;7.952;2023-04-08T08:34:49;10.80;70.60
7447;DHT22;3765;47.962;7.952;2023-04-08T08:37:17;10.90;70.80
7447;DHT22;3765;47.962;7.952;2023-04-08T08:39:45;11.10;70.40
7447;DHT22;3765;47.962;7.952;2023-04-08T08:42:19;11.10;70.40
7447;DHT22;3765;47.962;7.952;2023-04-08T08:44:49;10.90;69.90
7447;DHT22;3765;47.962;7.952;2023-04-08T08:47:18;11.10;70.40
7447;DHT22;3765;47.962;7.952;2023-04-08T08:49:47;11.40;70.10
7447;DHT22;3765;47.962;7.952;2023-04-08T08:52:15;11.80;69.90
7447;DHT22;3765;47.962;7.952;2023-04-08T08:54:44;11.50;69.80
7447;DHT22;3765;47.962;7.952;2023-04-08T08:57:16;11.90;69.70
7447;DHT22;3765;47.962;7.952;2023-04-08T08:59:46;11.90;68.70
7447;DHT22;3765;47.962;7.952;2023-04-08T09:02:24;11.40;68.70
7447;DHT22;3765;47.962;7.952;2023-04-08T09:04:58;11.40;69.30
7447;DHT22;3765;47.962;7.952;2023-04-08T09:07:29;11.50;69.30
7447;DHT22;3765;47.962;7.952;2023-04-08T09:09:58;11.80;68.70
7447;DHT22;3765;47.962;7.952;2023-04-08T09:12:27;11.50;68.40
7447;DHT22;3765;47.962;7.952;2023-04-08T09:15:04;11.40;68.80
7447;DHT22;3765;47.962;7.952;2023-04-08T09:17:36;11.70;68.50
7447;DHT22;3765;47.962;7.952;2023-04-08T09:20:06;11.90;68.30
7447;DHT22;3765;47.962;7.952;2023-04-08T09:22:57;11.80;67.90
7447;DHT22;3765;47.962;7.952;2023-04-08T09:25:27;12.10;67.80
7447;DHT22;3765;47.962;7.952;2023-04-08T09:27:56;11.80;67.60
7447;DHT22;3765;47.962;7.952;2023-04-08T09:30:25;11.80;67.70
7447;DHT22;3765;47.962;7.952;2023-04-08T09:32:56;12.10;67.50
7447;DHT22;3765;47.962;7.952;2023-04-08T09:35:25;12.20;66.60
7447;DHT22;3765;47.962;7.952;2023-04-08T09:37:53;11.80;66.80
7447;DHT22;3765;47.962;7.952;2023-04-08T09:40:22;11.50;67.10
7447;DHT22;3765;47.962;7.952;2023-04-08T09:42:53;11.80;67.50
7447;DHT22;3765;47.962;7.952;2023-04-08T09:45:23;12.00;67.10
7447;DHT22;3765;47.962;7.952;2023-04-08T09:48:09;12.00;67.00
7447;DHT22;3765;47.962;7.952;2023-04-08T09:50:44;12.10;67.10
7447;DHT22;3765;47.962;7.952;2023-04-08T09:53:19;12.50;66.80
7447;DHT22;3765;47.962;7.952;2023-04-08T09:55:50;12.70;66.40
7447;DHT22;3765;47.962;7.952;2023-04-08T09:58:21;12.80;66.20
7447;DHT22;3765;47.962;7.952;2023-04-08T10:00:54;12.90;66.00
7447;DHT22;3765;47.962;7.952;2023-04-08T10:03:28;13.20;65.50
7447;DHT22;3765;47.962;7.952;2023-04-08T10:05:57;13.10;65.30
7447;DHT22;3765;47.962;7.952;2023-04-08T10:08:28;13.00;65.40
7447;DHT22;3765;47.962;7.952;2023-04-08T10:10:57;13.20;65.30
7447;DHT22;3765;47.962;7.952;2023-04-08T10:13:26;13.10;64.90
7447;DHT22;3765;47.962;7.952;2023-04-08T10:16:17;13.10;65.20
7447;DHT22;3765;47.962;7.952;2023-04-08T10:18:47;13.10;64.90
7447;DHT22;3765;47.962;7.952;2023-04-08T10:21:38;13.00;64.80
7447;DHT22;3765;47.962;7.952;2023-04-08T10:24:09;13.00;64.60
7447;DHT22;3765;47.962;7.952;2023-04-08T10:26:41;13.00;64.50
7447;DHT22;3765;47.962;7.952;2023-04-08T10:29:43;13.20;64.20
7447;DHT22;3765;47.962;7.952;2023-04-08T10:32:27;13.10;63.80
7447;DHT22;3765;47.962;7.952;2023-04-08T10:34:57;13.00;64.00
7447;DHT22;3765;47.962;7.952;2023-04-08T10:37:25;12.90;63.70
7447;DHT22;3765;47.962;7.952;2023-04-08T10:39:54;12.80;64.20
7447;DHT22;3765;47.962;7.952;2023-04-08T10:42:26;12.80;63.60
7447;DHT22;3765;47.962;7.952;2023-04-08T10:44:59;12.70;63.70
7447;DHT22;3765;47.962;7.952;2023-04-08T10:47:28;12.90;63.70
7447;DHT22;3765;47.962;7.952;2023-04-08T10:49:58;12.90;63.70
7447;DHT22;3765;47.962;7.952;2023-04-08T10:52:26;12.90;63.40
7447;DHT22;3765;47.962;7.952;2023-04-08T10:54:55;12.90;63.40
7447;DHT22;3765;47.962;7.952;2023-04-08T10:57:23;13.00;63.50
7447;DHT22;3765;47.962;7.952;2023-04-08T10:59:52;12.90;63.00
7447;DHT22;3765;47.962;7.952;2023-04-08T11:02:20;13.00;63.10
7447;DHT22;3765;47.962;7.952;2023-04-08T11:04:48;13.00;63.10
7447;DHT22;3765;47.962;7.952;2023-04-08T11:07:20;13.10;63.00
7447;DHT22;3765;47.962;7.952;2023-04-08T11:09:48;13.50;62.80
7447;DHT22;3765;47.962;7.952;2023-04-08T11:12:17;13.60;62.40
7447;DHT22;3765;47.962;7.952;2023-04-08T11:14:45;13.40;62.20
7447;DHT22;3765;47.962;7.952;2023-04-08T11:17:15;13.50;62.30
7447;DHT22;3765;47.962;7.952;2023-04-08T11:19:43;13.70;62.10
7447;DHT22;3765;47.962;7.952;2023-04-08T11:22:12;13.80;62.20
7447;DHT22;3765;47.962;7.952;2023-04-08T11:24:41;13.90;61.70
7447;DHT22;3765;47.962;7.952;2023-04-08T11:27:10;13.60;61.40
7447;DHT22;3765;47.962;7.952;2023-04-08T11:29:38;13.30;62.00
7447;DHT22;3765;47.962;7.952;2023-04-08T11:32:06;12.90;62.00
7447;DHT22;3765;47.962;7.952;2023-04-08T11:34:38;13.20;62.20
7447;DHT22;3765;47.962;7.952;2023-04-08T11:37:07;13.00;62.00
7447;DHT22;3765;47.962;7.952;2023-04-08T11:39:42;13.00;62.20
7447;DHT22;3765;47.962;7.952;2023-04-08T11:42:25;13.30;62.20
7447;DHT22;3765;47.962;7.952;2023-04-08T11:44:53;13.40;61.30
7447;DHT22;3765;47.962;7.952;2023-04-08T11:47:29;13.30;60.80
7447;DHT22;3765;47.962;7.952;2023-04-08T11:49:58;13.50;60.70
7447;DHT22;3765;47.962;7.952;2023-04-08T11:52:40;13.70;60.70
7447;DHT22;3765;47.962;7.952;2023-04-08T11:55:10;13.80;60.50
7447;DHT22;3765;47.962;7.952;2023-04-08T11:57:38;13.90;60.20
7447;DHT22;3765;47.962;7.952;2023-04-08T12:00:07;13.80;59.90
7447;DHT22;3765;47.962;7.952;2023-04-08T12:02:36;13.50;59.70
7447;DHT22;3765;47.962;7.952;2023-04-08T12:05:04;13.00;59.90
7447;DHT22;3765;47.962;7.952;2023-04-08T12:07:33;12.90;60.40
7447;DHT22;3765;47.962;7.952;2023-04-08T12:10:02;13.00;60.50
7447;DHT22;3765;47.962;7.952;2023-04-08T12:12:31;12.80;60.30
7447;DHT22;3765;47.962;7.952;2023-04-08T12:14:59;12.80;60.60
7447;DHT22;3765;47.962;7.952;2023-04-08T12:17:27;12.70;60.70
7447;DHT22;3765;47.962;7.952;2023-04-08T12:19:56;12.80;60.80
7447;DHT22;3765;47.962;7.952;2023-04-08T12:22:24;12.70;60.80
7447;DHT22;3765;47.962;7.952;2023-04-08T12:24:52;12.70;61.20
7447;DHT22;3765;47.962;7.952;2023-04-08T12:27:21;12.80;61.30
7447;DHT22;3765;47.962;7.952;2023-04-08T12:29:50;12.80;61.30
7447;DHT22;3765;47.962;7.952;2023-04-08T12:32:19;12.80;61.20
7447;DHT22;3765;47.962;7.952;2023-04-08T12:34:47;12.90;61.30
7447;DHT22;3765;47.962;7.952;2023-04-08T12:37:15;13.00;61.30
7447;DHT22;3765;47.962;7.952;2023-04-08T12:39:43;13.10;61.20
7447;DHT22;3765;47.962;7.952;2023-04-08T12:42:12;13.30;60.90
7447;DHT22;3765;47.962;7.952;2023-04-08T12:44:40;13.40;61.00
7447;DHT22;3765;47.962;7.952;2023-04-08T12:47:10;13.60;60.60
7447;DHT22;3765;47.962;7.952;2023-04-08T12:49:38;13.70;60.40
7447;DHT22;3765;47.962;7.952;2023-04-08T12:52:09;13.80;60.40
7447;DHT22;3765;47.962;7.952;2023-04-08T12:54:37;13.90;60.00
7447;DHT22;3765;47.962;7.952;2023-04-08T12:57:05;14.00;59.60
7447;DHT22;3765;47.962;7.952;2023-04-08T12:59:34;14.30;59.60
7447;DHT22;3765;47.962;7.952;2023-04-08T13:02:03;15.00;59.10
7447;DHT22;3765;47.962;7.952;2023-04-08T13:04:33;15.40;57.80
7447;DHT22;3765;47.962;7.952;2023-04-08T13:07:01;15.30;57.30
7447;DHT22;3765;47.962;7.952;2023-04-08T13:09:30;15.00;57.40
7447;DHT22;3765;47.962;7.952;2023-04-08T13:11:58;14.80;57.20
7447;DHT22;3765;47.962;7.952;2023-04-08T13:14:26;14.30;57.30
7447;DHT22;3765;47.962;7.952;2023-04-08T13:16:54;14.20;57.00
7447;DHT22;3765;47.962;7.952;2023-04-08T13:19:22;14.00;57.10
7447;DHT22;3765;47.962;7.952;2023-04-08T13:21:52;14.10;57.20
7447;DHT22;3765;47.962;7.952;2023-04-08T13:24:20;13.90;56.80
7447;DHT22;3765;47.962;7.952;2023-04-08T13:26:49;13.80;56.90
7447;DHT22;3765;47.962;7.952;2023-04-08T13:29:17;13.70;56.90
7447;DHT22;3765;47.962;7.952;2023-04-08T13:31:45;13.60;57.10
7447;DHT22;3765;47.962;7.952;2023-04-08T13:34:13;13.30;56.90
7447;DHT22;3765;47.962;7.952;2023-04-08T13:36:42;13.30;57.10
7447;DHT22;3765;47.962;7.952;2023-04-08T13:39:11;13.30;57.00
7447;DHT22;3765;47.962;7.952;2023-04-08T13:41:39;13.30;57.40
7447;DHT22;3765;47.962;7.952;2023-04-08T13:44:08;13.40;57.60
7447;DHT22;3765;47.962;7.952;2023-04-08T13:46:36;13.30;57.20
7447;DHT22;3765;47.962;7.952;2023-04-08T13:49:05;13.10;57.90
7447;DHT22;3765;47.962;7.952;2023-04-08T13:51:33;13.30;57.80
7447;DHT22;3765;47.962;7.952;2023-04-08T13:54:01;13.20;57.70
7447;DHT22;3765;47.962;7.952;2023-04-08T13:56:31;13.10;57.70
7447;DHT22;3765;47.962;7.952;2023-04-08T13:58:59;13.10;57.60
7447;DHT22;3765;47.962;7.952;2023-04-08T14:01:28;13.10;57.20
7447;DHT22;3765;47.962;7.952;2023-04-08T14:03:57;12.70;57.90
7447;DHT22;3765;47.962;7.952;2023-04-08T14:06:26;12.80;58.30
7447;DHT22;3765;47.962;7.952;2023-04-08T14:08:54;13.00;58.30
7447;DHT22;3765;47.962;7.952;2023-04-08T14:11:22;13.10;57.90
7447;DHT22;3765;47.962;7.952;2023-04-08T14:13:52;13.10;58.10
7447;DHT22;3765;47.962;7.952;2023-04-08T14:16:20;12.70;58.40
7447;DHT22;3765;47.962;7.952;2023-04-08T14:18:48;12.70;58.70
7447;DHT22;3765;47.962;7.952;2023-04-08T14:21:17;12.40;58.50
7447;DHT22;3765;47.962;7.952;2023-04-08T14:23:45;12.40;58.90
7447;DHT22;3765;47.962;7.952;2023-04-08T14:26:13;12.30;58.80
7447;DHT22;3765;47.962;7.952;2023-04-08T14:28:42;12.30;59.00
7447;DHT22;3765;47.962;7.952;2023-04-08T14:31:11;12.20;59.20
7447;DHT22;3765;47.962;7.952;2023-04-08T14:33:39;12.10;58.90
7447;DHT22;3765;47.962;7.952;2023-04-08T14:36:08;11.90;58.70
7447;DHT22;3765;47.962;7.952;2023-04-08T14:38:36;11.80;58.90
7447;DHT22;3765;47.962;7.952;2023-04-08T14:41:05;11.60;59.10
7447;DHT22;3765;47.962;7.952;2023-04-08T14:43:33;11.80;59.10
7447;DHT22;3765;47.962;7.952;2023-04-08T14:46:01;11.80;58.90
7447;DHT22;3765;47.962;7.952;2023-04-08T14:48:31;11.50;58.70
7447;DHT22;3765;47.962;7.952;2023-04-08T14:50:59;11.50;58.90
7447;DHT22;3765;47.962;7.952;2023-04-08T14:53:27;11.30;58.60
7447;DHT22;3765;47.962;7.952;2023-04-08T14:55:55;11.30;58.90
7447;DHT22;3765;47.962;7.952;2023-04-08T14:58:24;11.40;59.20
7447;DHT22;3765;47.962;7.952;2023-04-08T15:00:52;11.60;59.00
7447;DHT22;3765;47.962;7.952;2023-04-08T15:03:21;11.60;58.30
7447;DHT22;3765;47.962;7.952;2023-04-08T15:05:51;11.60;58.50
7447;DHT22;3765;47.962;7.952;2023-04-08T15:08:21;11.70;58.50
7447;DHT22;3765;47.962;7.952;2023-04-08T15:10:49;11.80;58.40
7447;DHT22;3765;47.962;7.952;2023-04-08T15:13:17;11.70;58.40
7447;DHT22;3765;47.962;7.952;2023-04-08T15:15:46;11.90;58.70
7447;DHT22;3765;47.962;7.952;2023-04-08T15:18:14;11.90;58.20
7447;DHT22;3765;47.962;7.952;2023-04-08T15:20:42;12.10;58.20
7447;DHT22;3765;47.962;7.952;2023-04-08T15:23:11;11.90;57.80
7447;DHT22;3765;47.962;7.952;2023-04-08T15:25:40;12.00;58.10
7447;DHT22;3765;47.962;7.952;2023-04-08T15:28:08;12.10;58.00
7447;DHT22;3765;47.962;7.952;2023-04-08T15:30:36;12.30;57.90
7447;DHT22;3765;47.962;7.952;2023-04-08T15:33:04;12.40;57.70
7447;DHT22;3765;47.962;7.952;2023-04-08T15:35:32;12.50;57.50
7447;DHT22;3765;47.962;7.952;2023-04-08T15:38:01;12.60;57.40
7447;DHT22;3765;47.962;7.952;2023-04-08T15:40:32;12.50;57.50
7447;DHT22;3765;47.962;7.952;2023-04-08T15:43:00;12.50;57.50
7447;DHT22;3765;47.962;7.952;2023-04-08T15:45:29;12.60;57.30
7447;DHT22;3765;47.962;7.952;2023-04-08T15:47:57;12.60;57.30
7447;DHT22;3765;47.962;7.952;2023-04-08T15:50:27;12.60;57.20
7447;DHT22;3765;47.962;7.952;2023-04-08T15:52:56;12.60;56.90
7447;DHT22;3765;47.962;7.952;2023-04-08T15:55:24;12.50;57.00
7447;DHT22;3765;47.962;7.952;2023-04-08T15:57:54;12.50;57.10
7447;DHT22;3765;47.962;7.952;2023-04-08T16:00:23;12.60;57.20
7447;DHT22;3765;47.962;7.952;2023-04-08T16:02:52;12.70;57.00
7447;DHT22;3765;47.962;7.952;2023-04-08T16:05:21;12.80;56.90
7447;DHT22;3765;47.962;7.952;2023-04-08T16:07:49;12.80;56.70
7447;DHT22;3765;47.962;7.952;2023-04-08T16:10:17;12.90;56.40
7447;DHT22;3765;47.962;7.952;2023-04-08T16:12:46;12.80;56.40
7447;DHT22;3765;47.962;7.952;2023-04-08T16:15:16;12.80;56.30
7447;DHT22;3765;47.962;7.952;2023-04-08T16:17:49;12.70;56.40
7447;DHT22;3765;47.962;7.952;2023-04-08T16:20:17;12.70;56.20
7447;DHT22;3765;47.962;7.952;2023-04-08T16:22:46;12.50;56.20
7447;DHT22;3765;47.962;7.952;2023-04-08T16:25:16;12.40;56.40
7447;DHT22;3765;47.962;7.952;2023-04-08T16:27:44;12.50;56.60